Time;durP1;ratioP1;P1;durP2;ratioP2;P2;SDS_P1;SDS_P2;PMS_P1;PMS_P2;Temp;Humidity;BMP_temperature;BMP_pressure;BME280_temperature;BME280_humidity;BME280_pressure;Samples;Min_cycle;Max_cycle;Signal;HPM_P1;HPM_P2
2022/04/25 00:02:24;;;;;;;33.30;5.78;;;9.20;99.90;;;;;;4891484;29;20424;-80
2022/04/25 00:04:50;;;;;;;9.63;5.38;;;9.00;99.90;;;;;;4904672;29;20055;-79
2022/04/25 00:07:16;;;;;;;5.57;4.70;;;8.90;99.90;;;;;;4890517;29;20051;-79
2022/04/25 00:09:43;;;;;;;7.10;5.25;;;9.00;99.90;;;;;;4883770;29;20025;-79
2022/04/25 00:12:08;;;;;;;8.55;6.30;;;8.90;99.90;;;;;;4903151;29;20047;-79
2022/04/25 00:14:34;;;;;;;14.20;5.53;;;8.90;99.90;;;;;;4904179;28;20040;-79
2022/04/25 00:16:59;;;;;;;10.98;4.88;;;8.90;99.90;;;;;;4894956;29;20119;-79
2022/04/25 00:19:25;;;;;;;12.13;5.03;;;8.80;99.90;;;;;;4887430;29;20139;-79
2022/04/25 00:21:53;;;;;;;7.68;4.68;;;8.70;99.90;;;;;;4889180;29;20396;-79
2022/04/25 00:24:19;;;;;;;5.90;4.40;;;8.70;99.90;;;;;;4890772;28;20127;-79
2022/04/25 00:26:45;;;;;;;7.05;5.03;;;8.70;99.90;;;;;;4905203;28;20123;-79
2022/04/25 00:29:11;;;;;;;9.32;4.53;;;8.70;99.90;;;;;;4904941;29;20075;-79
2022/04/25 00:31:37;;;;;;;4.93;4.43;;;8.70;99.90;;;;;;4905247;28;20169;-79
2022/04/25 00:34:03;;;;;;;5.85;4.47;;;8.70;99.90;;;;;;4906022;29;20123;-79
2022/04/25 00:36:28;;;;;;;5.80;4.22;;;8.70;99.90;;;;;;4875468;29;20453;-79
2022/04/25 00:38:54;;;;;;;5.35;3.90;;;8.70;99.90;;;;;;4899806;29;20043;-79
2022/04/25 00:41:20;;;;;;;7.15;4.40;;;8.80;99.90;;;;;;4887931;29;22116;-80
2022/04/25 00:43:45;;;;;;;5.93;4.05;;;8.80;99.90;;;;;;4903982;28;20039;-79
2022/04/25 00:46:24;;;;;;;4.75;4.10;;;8.70;99.90;;;;;;4905632;28;20039;-80
2022/04/25 00:48:51;;;;;;;6.43;4.15;;;8.60;99.90;;;;;;4891946;29;20168;-79
2022/04/25 00:51:16;;;;;;;3.28;2.97;;;8.60;99.90;;;;;;4895803;29;20059;-79
2022/04/25 00:53:45;;;;;;;4.75;3.13;;;8.90;99.90;;;;;;4889467;28;20133;-79
2022/04/25 00:56:15;;;;;;;3.50;3.20;;;9.20;99.90;;;;;;4893665;29;20059;-79
2022/04/25 00:58:43;;;;;;;3.83;3.35;;;9.20;99.90;;;;;;4907150;28;20035;-79
2022/04/25 01:01:09;;;;;;;4.45;4.00;;;9.20;99.90;;;;;;4898357;29;20036;-78
2022/04/25 01:03:34;;;;;;;4.57;3.92;;;9.00;99.90;;;;;;4907613;29;20028;-79
2022/04/25 01:06:00;;;;;;;4.65;3.47;;;8.90;99.90;;;;;;4899391;29;20489;-78
2022/04/25 01:08:26;;;;;;;7.00;3.10;;;9.00;99.90;;;;;;4900999;29;20485;-79
2022/04/25 01:10:52;;;;;;;3.63;3.30;;;9.00;99.90;;;;;;4870346;28;20123;-79
2022/04/25 01:13:17;;;;;;;3.80;2.72;;;9.10;99.90;;;;;;4897075;29;20171;-79
2022/04/25 01:15:43;;;;;;;3.65;2.90;;;9.20;99.90;;;;;;4894673;28;20491;-78
2022/04/25 01:18:08;;;;;;;3.63;3.20;;;9.20;99.90;;;;;;4888044;28;20059;-79
2022/04/25 01:20:34;;;;;;;3.45;3.15;;;9.20;99.90;;;;;;4897135;29;20091;-79
2022/04/25 01:28:34;;;;;;;3.55;2.92;;;9.10;99.90;;;;;;4889581;28;20599;-79
2022/04/25 01:31:00;;;;;;;4.13;3.08;;;9.00;99.90;;;;;;4876348;28;20064;-78
2022/04/25 01:33:25;;;;;;;3.88;3.53;;;9.20;99.90;;;;;;4890660;28;20035;-79
2022/04/25 01:35:51;;;;;;;5.50;3.42;;;8.90;99.90;;;;;;4899120;29;20043;-79
2022/04/25 01:38:17;;;;;;;4.78;2.97;;;9.00;99.90;;;;;;4899435;29;20055;-79
2022/04/25 01:40:42;;;;;;;4.10;3.63;;;8.90;99.90;;;;;;4906989;29;20028;-79
2022/04/25 01:43:08;;;;;;;3.50;3.10;;;9.10;99.90;;;;;;4882109;29;20033;-79
2022/04/25 01:45:33;;;;;;;3.45;3.15;;;9.10;99.90;;;;;;4907595;29;20089;-79
2022/04/25 01:47:59;;;;;;;3.00;2.70;;;9.10;99.90;;;;;;4904338;28;20111;-79
2022/04/25 01:50:24;;;;;;;3.83;3.03;;;9.10;99.90;;;;;;4909158;29;20047;-79
2022/04/25 01:52:50;;;;;;;3.65;3.20;;;9.20;99.90;;;;;;4919752;28;20400;-78
2022/04/25 01:55:15;;;;;;;4.50;2.83;;;9.10;99.90;;;;;;4906894;28;20033;-79
2022/04/25 01:57:41;;;;;;;4.05;3.70;;;9.10;99.90;;;;;;4903806;28;20032;-79
2022/04/25 02:00:07;;;;;;;6.45;3.30;;;9.00;99.90;;;;;;4904074;29;20080;-78
2022/04/25 02:02:32;;;;;;;3.67;3.13;;;9.00;99.90;;;;;;4889985;29;20528;-78
2022/04/25 02:04:59;;;;;;;4.68;3.97;;;8.90;99.90;;;;;;4893757;29;20028;-79
2022/04/25 02:07:25;;;;;;;5.40;4.40;;;8.80;99.90;;;;;;4902268;29;20400;-78
2022/04/25 02:09:50;;;;;;;4.13;3.72;;;8.60;99.90;;;;;;4876390;29;20028;-78
2022/04/25 02:12:16;;;;;;;7.35;4.85;;;8.60;99.90;;;;;;4887187;29;20032;-79
2022/04/25 02:14:42;;;;;;;6.55;4.90;;;8.50;99.90;;;;;;4890331;28;20521;-79
2022/04/25 02:17:08;;;;;;;8.77;5.10;;;8.50;99.90;;;;;;4911194;29;20035;-79
2022/04/25 02:19:35;;;;;;;7.03;5.38;;;8.50;99.90;;;;;;4895290;29;20392;-79
2022/04/25 02:22:01;;;;;;;6.57;4.97;;;8.50;99.90;;;;;;4912820;28;20669;-78
2022/04/25 02:24:26;;;;;;;5.60;4.95;;;8.50;99.90;;;;;;4895613;29;20119;-79
2022/04/25 02:26:52;;;;;;;7.63;5.13;;;8.50;99.90;;;;;;4915169;28;20039;-79
2022/04/25 02:29:22;;;;;;;7.07;5.47;;;8.40;99.90;;;;;;4908478;28;20036;-79
2022/04/25 02:31:47;;;;;;;4.80;3.72;;;8.30;99.90;;;;;;4878359;28;20032;-79
2022/04/25 02:34:13;;;;;;;4.32;3.80;;;8.60;99.90;;;;;;4910544;28;20029;-79
2022/04/25 02:36:39;;;;;;;7.13;5.18;;;8.60;99.90;;;;;;4900081;29;20040;-78
2022/04/25 02:39:04;;;;;;;6.38;4.63;;;8.50;99.90;;;;;;4890434;29;20032;-79
2022/04/25 02:41:30;;;;;;;6.35;4.68;;;8.50;99.90;;;;;;4911806;28;20118;-78
2022/04/25 02:43:55;;;;;;;3.38;3.08;;;8.40;99.90;;;;;;4905849;28;20029;-78
2022/04/25 02:46:21;;;;;;;8.23;5.30;;;8.50;99.90;;;;;;4908644;28;20436;-79
2022/04/25 02:48:46;;;;;;;6.88;4.25;;;8.50;99.90;;;;;;4911907;28;20510;-79
2022/04/25 02:51:13;;;;;;;3.33;3.03;;;8.50;99.90;;;;;;4894380;29;20044;-78
2022/04/25 02:53:38;;;;;;;3.63;3.15;;;8.60;99.90;;;;;;4907105;29;20021;-79
2022/04/25 02:56:05;;;;;;;4.63;3.53;;;8.60;99.90;;;;;;4909363;28;20535;-79
2022/04/25 02:58:31;;;;;;;6.50;4.18;;;8.50;99.90;;;;;;4893403;29;24660;-79
2022/04/25 03:00:57;;;;;;;6.38;4.90;;;8.60;99.90;;;;;;4900076;28;20036;-77
2022/04/25 03:03:24;;;;;;;6.85;5.38;;;8.40;99.90;;;;;;4904181;29;20033;-77
2022/04/25 03:05:50;;;;;;;7.90;5.93;;;8.50;99.90;;;;;;4896298;29;20048;-77
2022/04/25 03:08:17;;;;;;;7.68;6.38;;;8.40;99.90;;;;;;4905245;28;20032;-77
2022/04/25 03:10:43;;;;;;;7.90;6.28;;;8.30;99.90;;;;;;4890962;28;20480;-78
2022/04/25 03:13:09;;;;;;;8.18;6.15;;;8.30;99.90;;;;;;4906550;29;20514;-77
2022/04/25 03:15:38;;;;;;;8.65;6.20;;;8.20;99.90;;;;;;4903887;29;20503;-77
2022/04/25 03:18:04;;;;;;;9.50;6.32;;;8.20;99.90;;;;;;4900392;28;20091;-77
2022/04/25 03:20:31;;;;;;;9.23;7.20;;;8.30;99.90;;;;;;4909500;29;20066;-77
2022/04/25 03:22:57;;;;;;;9.05;7.22;;;8.30;99.90;;;;;;4894446;28;20036;-77
2022/04/25 03:25:23;;;;;;;11.98;7.20;;;8.10;99.90;;;;;;4904994;29;20051;-77
2022/04/25 03:27:48;;;;;;;10.45;7.03;;;8.10;99.90;;;;;;4886283;28;20494;-78
2022/04/25 03:30:14;;;;;;;7.93;6.60;;;8.00;99.90;;;;;;4903534;28;20033;-78
2022/04/25 03:32:46;;;;;;;6.93;4.63;;;8.20;99.90;;;;;;4890550;29;20460;-78
2022/04/25 03:35:12;;;;;;;9.50;6.93;;;8.30;99.90;;;;;;4889643;29;20074;-79
2022/04/25 03:37:38;;;;;;;8.80;6.97;;;8.30;99.90;;;;;;4906143;29;20580;-79
2022/04/25 03:40:05;;;;;;;11.00;7.80;;;8.20;99.90;;;;;;4902738;28;20044;-78
2022/04/25 03:42:31;;;;;;;8.57;7.38;;;8.30;99.90;;;;;;4909363;28;20043;-79
2022/04/25 03:44:56;;;;;;;10.70;7.03;;;8.30;99.90;;;;;;4904127;29;20029;-79
2022/04/25 03:47:22;;;;;;;10.68;6.60;;;8.20;99.90;;;;;;4878163;28;20515;-79
2022/04/25 03:49:48;;;;;;;6.10;5.43;;;8.30;99.90;;;;;;4907736;29;20102;-79
2022/04/25 03:52:13;;;;;;;8.48;7.22;;;8.30;99.90;;;;;;4889503;29;20120;-79
2022/04/25 03:57:23;;;;;;;10.65;8.10;;;8.20;99.90;;;;;;4906971;29;20032;-79
2022/04/25 03:59:48;;;;;;;8.15;6.75;;;8.20;99.90;;;;;;4893633;28;20028;-79
2022/04/25 04:02:14;;;;;;;9.05;5.80;;;8.20;99.90;;;;;;4904640;29;20089;-79
2022/04/25 04:04:39;;;;;;;8.90;7.50;;;8.30;99.90;;;;;;4890517;29;20389;-79
2022/04/25 04:07:05;;;;;;;10.43;8.40;;;8.30;99.90;;;;;;4904033;28;20111;-79
2022/04/25 04:09:46;;;;;;;13.10;9.25;;;8.20;99.90;;;;;;4907833;29;20057;-79
2022/04/25 04:12:15;;;;;;;7.35;6.65;;;8.20;99.90;;;;;;4905068;29;20127;-79
2022/04/25 04:14:41;;;;;;;9.40;8.15;;;8.20;99.90;;;;;;4905904;29;20043;-79
2022/04/25 04:17:07;;;;;;;11.13;9.32;;;8.30;99.90;;;;;;4906222;28;20508;-78
2022/04/25 04:19:35;;;;;;;10.75;8.80;;;8.20;99.90;;;;;;4892445;28;20040;-79
2022/04/25 04:22:04;;;;;;;8.27;6.53;;;8.30;99.90;;;;;;4917399;28;20060;-78
2022/04/25 04:24:34;;;;;;;10.50;8.90;;;8.30;99.90;;;;;;4908815;29;20102;-78
2022/04/25 04:27:03;;;;;;;7.53;6.13;;;8.30;99.90;;;;;;4905986;29;20615;-77
2022/04/25 04:29:29;;;;;;;5.43;4.28;;;8.30;99.90;;;;;;4886558;29;20024;-78
2022/04/25 04:31:57;;;;;;;5.15;3.63;;;8.50;99.90;;;;;;4903204;29;20039;-78
2022/04/25 04:34:22;;;;;;;5.82;5.20;;;8.50;99.90;;;;;;4888883;29;20119;-78
2022/04/25 04:36:50;;;;;;;9.88;6.45;;;8.60;99.90;;;;;;4901490;28;20130;-78
2022/04/25 04:39:15;;;;;;;8.90;7.70;;;8.60;99.90;;;;;;4907976;29;20395;-78
2022/04/25 04:41:41;;;;;;;10.65;7.35;;;8.50;99.90;;;;;;4891870;29;20111;-78
2022/04/25 04:44:06;;;;;;;10.57;8.57;;;8.40;99.90;;;;;;4885259;28;20112;-78
2022/04/25 04:46:32;;;;;;;10.65;8.93;;;8.40;99.90;;;;;;4877468;28;20063;-78
2022/04/25 04:48:57;;;;;;;9.57;8.45;;;8.40;99.90;;;;;;4899949;29;20036;-78
2022/04/25 04:51:23;;;;;;;11.15;9.60;;;8.40;99.90;;;;;;4896543;29;20043;-78
2022/04/25 04:53:48;;;;;;;7.60;5.97;;;8.40;99.90;;;;;;4908526;29;20396;-78
2022/04/25 04:56:14;;;;;;;8.95;6.35;;;8.50;99.90;;;;;;4889856;29;20050;-78
2022/04/25 04:58:40;;;;;;;9.48;6.63;;;8.40;99.90;;;;;;4886946;29;20119;-78
2022/04/25 05:01:05;;;;;;;5.43;4.10;;;8.50;99.90;;;;;;4891268;28;20024;-78
2022/04/25 05:03:31;;;;;;;7.63;6.80;;;8.50;99.90;;;;;;4908403;28;20447;-78
2022/04/25 05:05:57;;;;;;;7.93;6.18;;;8.60;99.90;;;;;;4903100;28;20043;-78
2022/04/25 05:08:22;;;;;;;8.95;8.07;;;8.60;99.90;;;;;;4874484;28;20115;-78
2022/04/25 05:10:48;;;;;;;12.60;8.68;;;8.50;99.90;;;;;;4898800;28;20059;-78
2022/04/25 05:13:15;;;;;;;5.20;4.70;;;8.50;99.90;;;;;;4905933;29;20047;-78
2022/04/25 05:15:40;;;;;;;5.53;4.65;;;8.50;99.90;;;;;;4905466;28;20020;-78
2022/04/25 05:18:06;;;;;;;15.07;11.52;;;8.50;99.90;;;;;;4908849;28;20404;-78
2022/04/25 05:20:31;;;;;;;14.35;11.63;;;8.50;99.90;;;;;;4906342;28;20095;-78
2022/04/25 05:22:57;;;;;;;15.30;10.73;;;8.50;99.90;;;;;;4909250;28;20481;-78
2022/04/25 05:25:24;;;;;;;17.95;13.88;;;8.50;99.90;;;;;;4905692;28;20028;-79
2022/04/25 05:27:52;;;;;;;17.92;14.40;;;8.50;99.90;;;;;;4904209;28;20115;-79
2022/04/25 05:30:18;;;;;;;23.60;15.45;;;8.50;99.90;;;;;;4873088;29;20024;-79
2022/04/25 05:32:47;;;;;;;22.48;15.13;;;8.50;99.90;;;;;;4888600;29;20432;-79
2022/04/25 05:35:14;;;;;;;27.55;20.58;;;8.60;99.90;;;;;;4889980;29;20032;-79
2022/04/25 05:37:39;;;;;;;29.15;22.08;;;8.50;99.90;;;;;;4890256;29;20040;-78
2022/04/25 05:40:06;;;;;;;35.65;22.33;;;8.50;99.90;;;;;;4892365;29;20047;-78
2022/04/25 05:42:32;;;;;;;25.75;18.98;;;8.50;99.90;;;;;;4907576;29;20039;-78
2022/04/25 05:44:58;;;;;;;30.67;21.30;;;8.60;99.90;;;;;;4888075;29;20404;-78
2022/04/25 05:47:24;;;;;;;30.92;22.63;;;8.60;99.90;;;;;;4889679;28;20071;-78
2022/04/25 05:52:33;;;;;;;34.20;21.85;;;8.70;99.90;;;;;;4886251;29;20123;-78
2022/04/25 05:54:59;;;;;;;33.35;23.08;;;8.70;99.90;;;;;;4876104;28;20123;-78
2022/04/25 05:57:25;;;;;;;34.75;23.48;;;8.70;99.90;;;;;;4918497;28;20115;-78
2022/04/25 05:59:50;;;;;;;32.72;23.05;;;8.70;99.90;;;;;;4876075;28;20112;-78
2022/04/25 06:02:17;;;;;;;34.20;22.90;;;8.70;99.90;;;;;;4877296;29;20409;-78
2022/04/25 06:04:43;;;;;;;29.52;24.63;;;8.80;99.90;;;;;;4882531;28;20079;-78
2022/04/25 06:07:08;;;;;;;32.17;22.13;;;8.70;99.90;;;;;;4876291;29;20044;-78
2022/04/25 06:09:34;;;;;;;28.08;21.08;;;8.80;99.90;;;;;;4907664;28;20432;-78
2022/04/25 06:12:02;;;;;;;30.83;22.35;;;8.90;99.90;;;;;;4875489;28;20029;-78
2022/04/25 06:14:31;;;;;;;31.10;22.58;;;8.90;99.90;;;;;;4885850;28;20119;-78
2022/04/25 06:16:57;;;;;;;31.63;23.60;;;8.90;99.90;;;;;;4892247;28;20035;-77
2022/04/25 06:19:23;;;;;;;35.63;22.70;;;9.00;99.90;;;;;;4884045;28;20496;-78
2022/04/25 06:21:48;;;;;;;32.05;23.52;;;9.00;99.90;;;;;;4875687;29;20055;-78
2022/04/25 06:24:14;;;;;;;31.15;22.77;;;9.00;99.90;;;;;;4880798;29;20066;-78
2022/04/25 06:26:39;;;;;;;32.97;25.38;;;9.10;99.90;;;;;;4887924;29;20485;-78
2022/04/25 06:29:05;;;;;;;32.85;22.73;;;9.10;99.90;;;;;;4902631;29;20073;-78
2022/04/25 06:31:31;;;;;;;31.73;22.13;;;9.10;99.90;;;;;;4906060;29;20062;-78
2022/04/25 06:33:57;;;;;;;30.48;22.65;;;9.20;99.90;;;;;;4874793;28;20084;-78
2022/04/25 06:36:24;;;;;;;31.55;22.40;;;9.10;99.90;;;;;;4877144;28;20047;-78
2022/04/25 06:38:49;;;;;;;25.92;18.63;;;9.10;99.90;;;;;;4904521;29;20485;-78
2022/04/25 06:41:15;;;;;;;24.38;18.98;;;9.20;99.90;;;;;;4900479;29;20043;-78
2022/04/25 06:43:41;;;;;;;23.88;18.33;;;9.20;99.90;;;;;;4907167;28;20039;-78
2022/04/25 06:46:07;;;;;;;25.48;18.70;;;9.10;99.90;;;;;;4891613;28;20552;-79
2022/04/25 06:48:32;;;;;;;25.65;19.58;;;9.10;99.90;;;;;;4900384;29;20042;-78
2022/04/25 06:50:58;;;;;;;25.55;19.65;;;9.10;99.90;;;;;;4875112;28;20071;-78
2022/04/25 06:53:24;;;;;;;27.00;19.92;;;9.10;99.90;;;;;;4900325;29;20452;-78
2022/04/25 06:55:49;;;;;;;28.67;20.80;;;9.20;99.90;;;;;;4904808;29;20396;-78
2022/04/25 06:58:15;;;;;;;29.75;22.30;;;9.20;99.90;;;;;;4890661;28;20067;-78
2022/04/25 07:00:41;;;;;;;29.42;21.90;;;9.20;99.90;;;;;;4877552;28;20441;-78
2022/04/25 07:03:06;;;;;;;26.65;20.55;;;9.30;99.90;;;;;;4890392;28;20032;-78
2022/04/25 07:05:32;;;;;;;34.53;20.15;;;9.30;99.90;;;;;;4911331;28;20044;-79
2022/04/25 07:07:57;;;;;;;29.20;22.83;;;9.40;99.90;;;;;;4903697;29;20031;-79
2022/04/25 07:10:23;;;;;;;25.85;21.27;;;9.40;99.90;;;;;;4877278;28;20396;-79
2022/04/25 07:12:49;;;;;;;23.70;18.45;;;9.50;99.90;;;;;;4874258;29;20048;-79
2022/04/25 07:15:15;;;;;;;19.98;16.67;;;9.60;99.90;;;;;;4893105;29;20036;-79
2022/04/25 07:17:40;;;;;;;24.63;16.63;;;9.70;99.90;;;;;;4877750;28;20040;-79
2022/04/25 07:20:09;;;;;;;23.25;16.48;;;9.70;99.90;;;;;;4900445;29;20048;-79
2022/04/25 07:30:47;;;;;;;12.73;9.65;;;10.10;99.90;;;;;;4903157;28;20087;-79
2022/04/25 07:33:13;;;;;;;12.75;9.70;;;10.20;99.90;;;;;;4903015;29;20080;-79
2022/04/25 07:35:39;;;;;;;11.75;9.75;;;10.30;99.90;;;;;;4903833;28;20454;-79
2022/04/25 07:38:05;;;;;;;10.38;8.80;;;10.30;99.90;;;;;;4892451;29;20028;-79
2022/04/25 07:40:31;;;;;;;11.57;9.60;;;10.40;99.90;;;;;;4906760;28;20087;-79
2022/04/25 07:42:57;;;;;;;12.93;9.65;;;10.50;99.90;;;;;;4878437;29;20040;-79
2022/04/25 07:45:22;;;;;;;13.88;10.80;;;10.60;99.90;;;;;;4890922;29;20452;-79
2022/04/25 07:47:48;;;;;;;14.02;12.10;;;10.60;99.90;;;;;;4877233;29;20047;-79
2022/04/25 07:50:15;;;;;;;12.45;10.90;;;10.60;99.90;;;;;;4888518;28;20047;-79
2022/04/25 07:52:40;;;;;;;14.10;12.30;;;10.60;99.90;;;;;;4893122;28;20032;-79
2022/04/25 07:55:09;;;;;;;17.45;13.13;;;10.70;99.90;;;;;;4919206;28;20033;-79
2022/04/25 07:57:35;;;;;;;16.10;14.07;;;10.70;99.90;;;;;;4908834;28;20488;-79
2022/04/25 08:00:04;;;;;;;15.85;14.10;;;10.70;99.90;;;;;;4892833;28;20028;-80
2022/04/25 08:02:30;;;;;;;19.02;14.27;;;10.80;99.90;;;;;;4877682;29;20082;-79
2022/04/25 08:04:55;;;;;;;16.83;14.23;;;10.80;99.90;;;;;;4906215;28;20194;-79
2022/04/25 08:07:22;;;;;;;17.67;15.65;;;10.90;99.90;;;;;;4893205;29;20739;-79
2022/04/25 08:09:47;;;;;;;17.33;15.50;;;10.90;99.90;;;;;;4889430;29;20028;-79
2022/04/25 08:17:59;;;;;;;16.88;14.80;;;11.00;99.90;;;;;;4899798;28;20047;-79
2022/04/25 08:20:25;;;;;;;18.92;14.93;;;11.00;99.90;;;;;;4881090;29;20032;-79
2022/04/25 08:22:53;;;;;;;18.52;15.93;;;11.10;99.90;;;;;;4906689;29;20836;-79
2022/04/25 08:25:19;;;;;;;17.92;16.02;;;11.10;99.90;;;;;;4877161;29;20524;-79
2022/04/25 08:27:45;;;;;;;22.80;16.90;;;11.10;99.90;;;;;;4885829;29;20021;-79
2022/04/25 08:30:13;;;;;;;18.45;16.17;;;11.20;99.90;;;;;;4888932;28;20084;-79
2022/04/25 08:32:39;;;;;;;19.10;16.45;;;11.20;99.90;;;;;;4890288;29;20022;-79
2022/04/25 08:35:04;;;;;;;18.90;16.52;;;11.20;99.90;;;;;;4884445;28;20695;-79
2022/04/25 08:37:30;;;;;;;21.48;16.90;;;11.30;99.90;;;;;;4892530;28;20028;-79
2022/04/25 08:39:56;;;;;;;20.15;17.10;;;11.30;99.90;;;;;;4917479;28;20116;-79
2022/04/25 08:42:21;;;;;;;20.50;17.20;;;11.40;99.90;;;;;;4887822;29;20484;-79
2022/04/25 08:44:52;;;;;;;19.02;16.75;;;11.50;99.90;;;;;;4877469;28;20119;-79
2022/04/25 08:47:17;;;;;;;21.27;17.52;;;11.60;99.90;;;;;;4876709;28;20040;-79
2022/04/25 08:49:43;;;;;;;18.77;16.75;;;11.70;99.90;;;;;;4889142;28;20028;-79
2022/04/25 08:52:09;;;;;;;26.27;17.25;;;11.70;99.90;;;;;;4903293;29;20042;-79
2022/04/25 08:54:35;;;;;;;17.80;16.00;;;11.80;99.90;;;;;;4908502;28;20131;-80
2022/04/25 08:57:00;;;;;;;19.73;15.98;;;11.90;99.90;;;;;;4873090;29;20079;-79
2022/04/25 08:59:26;;;;;;;18.65;15.25;;;12.00;99.90;;;;;;4905185;29;20056;-80
2022/04/25 09:01:51;;;;;;;19.60;14.13;;;12.00;99.90;;;;;;4903390;28;20039;-79
2022/04/25 09:04:17;;;;;;;15.68;12.82;;;12.10;99.90;;;;;;4892704;29;20088;-79
2022/04/25 09:06:42;;;;;;;16.17;12.32;;;12.10;99.90;;;;;;4888568;28;20131;-78
2022/04/25 09:09:08;;;;;;;17.55;12.95;;;12.20;99.90;;;;;;4887075;28;20060;-78
2022/04/25 09:14:18;;;;;;;12.35;10.90;;;12.20;99.90;;;;;;4894074;29;20061;-78
2022/04/25 09:16:44;;;;;;;12.20;10.88;;;12.30;99.90;;;;;;4892619;28;20040;-78
2022/04/25 09:19:09;;;;;;;12.38;9.82;;;12.30;99.90;;;;;;4906344;28;20043;-78
2022/04/25 09:21:40;;;;;;;11.85;9.57;;;12.30;99.90;;;;;;4906603;28;20040;-77
2022/04/25 09:24:22;;;;;;;17.23;9.60;;;12.40;99.90;;;;;;4887952;28;20496;-78
2022/04/25 09:26:50;;;;;;;11.77;9.15;;;12.40;99.90;;;;;;4907557;29;20033;-78
2022/04/25 09:29:18;;;;;;;12.75;9.60;;;12.50;99.90;;;;;;4885549;28;20048;-78
2022/04/25 09:31:48;;;;;;;10.75;8.15;;;12.60;99.90;;;;;;4898451;28;20047;-78
2022/04/25 09:34:15;;;;;;;10.45;9.20;;;12.80;99.90;;;;;;4905242;28;20044;-78
2022/04/25 09:36:47;;;;;;;11.32;8.40;;;12.90;99.90;;;;;;4903173;28;20151;-79
2022/04/25 09:39:28;;;;;;;9.32;8.25;;;13.20;99.90;;;;;;4887663;28;20539;-78
2022/04/25 09:41:53;;;;;;;13.85;9.63;;;13.50;99.90;;;;;;4891128;29;20485;-78
2022/04/25 09:44:19;;;;;;;11.50;8.90;;;13.70;99.90;;;;;;4903089;29;22129;-78
2022/04/25 09:46:47;;;;;;;10.75;8.52;;;14.20;99.90;;;;;;4874980;28;20044;-78
2022/04/25 09:49:21;;;;;;;8.98;7.97;;;14.50;99.90;;;;;;4902640;28;20051;-78
2022/04/25 09:52:00;;;;;;;10.63;8.18;;;15.00;99.90;;;;;;4889984;29;20119;-79
2022/04/25 09:54:25;;;;;;;12.80;8.18;;;15.40;99.90;;;;;;4876974;29;20038;-78
2022/04/25 09:56:51;;;;;;;11.27;8.00;;;15.50;99.90;;;;;;4883332;28;20461;-78
2022/04/25 09:59:18;;;;;;;9.25;8.25;;;15.90;99.90;;;;;;4905150;28;20028;-78
2022/04/25 10:01:45;;;;;;;9.80;7.57;;;16.10;99.90;;;;;;4903671;29;20733;-78
2022/04/25 10:04:33;;;;;;;9.55;8.35;;;16.40;99.90;;;;;;4892478;28;20044;-79
2022/04/25 10:07:04;;;;;;;9.18;7.97;;;16.80;99.90;;;;;;4876622;29;20071;-79
2022/04/25 10:09:31;;;;;;;9.52;7.70;;;17.00;99.90;;;;;;4887087;29;20409;-79
2022/04/25 10:11:59;;;;;;;13.40;7.47;;;17.00;99.90;;;;;;4900917;28;20036;-79
2022/04/25 10:14:25;;;;;;;9.10;7.30;;;17.10;99.90;;;;;;4874269;29;20041;-78
2022/04/25 10:16:51;;;;;;;10.82;8.68;;;17.10;99.90;;;;;;4890213;28;20396;-78
2022/04/25 10:19:16;;;;;;;8.75;7.68;;;16.90;99.90;;;;;;4895461;29;20060;-78
2022/04/25 10:21:42;;;;;;;13.00;8.10;;;16.80;99.90;;;;;;4894023;28;20040;-78
2022/04/25 10:24:07;;;;;;;11.50;8.75;;;16.70;99.90;;;;;;4873497;29;20570;-78
2022/04/25 10:26:33;;;;;;;11.30;8.63;;;16.70;99.90;;;;;;4903541;29;20040;-79
2022/04/25 10:29:10;;;;;;;10.93;8.85;;;16.50;99.90;;;;;;4895612;29;20063;-79
2022/04/25 10:31:41;;;;;;;14.43;10.93;;;16.40;99.90;;;;;;4885344;29;20043;-78
2022/04/25 10:34:08;;;;;;;14.50;10.52;;;16.40;99.90;;;;;;4877250;29;20036;-79
2022/04/25 10:36:37;;;;;;;12.50;11.07;;;16.30;99.90;;;;;;4908941;29;20032;-79
2022/04/25 10:39:14;;;;;;;12.50;10.15;;;16.30;99.90;;;;;;4910394;29;20552;-79
2022/04/25 10:44:26;;;;;;;11.82;10.35;;;16.40;99.90;;;;;;4910893;29;20039;-79
2022/04/25 10:47:05;;;;;;;11.15;8.57;;;16.40;99.90;;;;;;4910987;28;20040;-79
2022/04/25 10:49:31;;;;;;;11.25;9.57;;;16.50;99.90;;;;;;4911669;28;20491;-79
2022/04/25 10:51:56;;;;;;;12.05;9.30;;;16.60;99.90;;;;;;4903002;29;20683;-79
2022/04/25 10:54:26;;;;;;;7.40;6.50;;;16.70;99.90;;;;;;4888830;28;20119;-79
2022/04/25 10:57:06;;;;;;;10.85;8.95;;;16.60;99.90;;;;;;4906971;28;20554;-79
2022/04/25 10:59:32;;;;;;;11.55;9.32;;;16.90;99.90;;;;;;4902849;29;20493;-79
2022/04/25 11:01:58;;;;;;;11.35;9.82;;;17.00;99.90;;;;;;4906549;29;20039;-79
2022/04/25 11:04:23;;;;;;;12.68;10.30;;;17.10;99.90;;;;;;4894757;29;20036;-79
2022/04/25 11:07:22;;;;;;;12.63;10.02;;;17.20;99.90;;;;;;4906124;28;20108;-79
2022/04/25 11:09:48;;;;;;;10.13;8.85;;;17.10;99.90;;;;;;4905856;29;20512;-79
2022/04/25 11:12:13;;;;;;;12.27;10.20;;;17.10;99.90;;;;;;4899332;28;20036;-79
2022/04/25 11:14:58;;;;;;;11.75;9.65;;;17.00;99.90;;;;;;4877831;28;20040;-79
2022/04/25 11:17:24;;;;;;;12.82;10.50;;;16.90;99.90;;;;;;4891257;29;20123;-79
2022/04/25 11:19:51;;;;;;;12.45;10.05;;;16.80;99.90;;;;;;4891194;29;20112;-79
2022/04/25 11:22:38;;;;;;;10.93;9.45;;;16.70;99.90;;;;;;4878296;29;20040;-79
2022/04/25 11:25:25;;;;;;;12.82;10.98;;;16.70;99.90;;;;;;4911129;28;20040;-79
2022/04/25 11:28:04;;;;;;;12.90;11.60;;;16.60;99.90;;;;;;4910572;28;20052;-79
2022/04/25 11:30:30;;;;;;;14.30;12.23;;;16.60;99.90;;;;;;4906463;29;20044;-79
2022/04/25 11:33:04;;;;;;;18.30;14.02;;;16.60;99.90;;;;;;4905006;28;20033;-79
2022/04/25 11:35:30;;;;;;;13.25;10.85;;;16.60;99.90;;;;;;4893923;29;20040;-78
2022/04/25 11:37:56;;;;;;;15.13;12.85;;;16.60;99.90;;;;;;4906215;28;20481;-79
2022/04/25 11:40:22;;;;;;;17.20;13.68;;;16.70;99.90;;;;;;4891653;29;20792;-79
2022/04/25 11:42:47;;;;;;;18.25;15.23;;;16.70;99.90;;;;;;4903504;28;20028;-79
2022/04/25 11:45:13;;;;;;;16.90;14.27;;;16.60;99.90;;;;;;4908927;29;20144;-79
2022/04/25 11:47:39;;;;;;;15.82;13.35;;;16.60;99.90;;;;;;4905298;28;20437;-79
2022/04/25 11:50:07;;;;;;;24.50;16.30;;;16.50;99.90;;;;;;4894263;29;20032;-79
2022/04/25 11:52:32;;;;;;;18.27;13.90;;;16.40;99.90;;;;;;4908977;29;20119;-79
2022/04/25 11:54:58;;;;;;;17.50;14.43;;;16.40;99.90;;;;;;4891022;29;20123;-79
2022/04/25 11:57:25;;;;;;;14.55;11.90;;;16.30;99.90;;;;;;4877911;29;20039;-79
2022/04/25 12:00:23;;;;;;;15.70;11.60;;;16.30;99.90;;;;;;4906606;28;20048;-79
2022/04/25 12:02:48;;;;;;;9.80;8.82;;;16.20;99.90;;;;;;4877959;28;20431;-79
2022/04/25 12:05:24;;;;;;;9.85;8.55;;;16.20;99.90;;;;;;4906954;29;20032;-79
2022/04/25 12:16:04;;;;;;;10.77;9.68;;;16.10;99.90;;;;;;4890142;29;20091;-79
2022/04/25 12:18:30;;;;;;;10.30;9.13;;;16.10;99.90;;;;;;4908324;29;20032;-79
2022/04/25 12:21:11;;;;;;;10.40;9.00;;;16.10;99.90;;;;;;4886260;28;20032;-80
2022/04/25 12:23:45;;;;;;;10.63;9.48;;;16.20;99.90;;;;;;4891472;29;20481;-79
2022/04/25 12:26:21;;;;;;;15.27;9.07;;;16.20;99.90;;;;;;4882298;29;20043;-79
2022/04/25 12:28:50;;;;;;;;;;;16.30;99.90;;;;;;4910051;28;20149;-79
2022/04/25 12:31:16;;;;;;;9.05;8.00;;;16.30;99.90;;;;;;4894095;28;19922;-80
2022/04/25 12:33:45;;;;;;;10.63;8.40;;;16.50;99.90;;;;;;4908993;28;20028;-80
2022/04/25 12:36:16;;;;;;;19.30;12.80;;;16.60;99.90;;;;;;4876987;29;20436;-80
2022/04/25 12:38:57;;;;;;;17.85;13.63;;;16.90;99.90;;;;;;4893378;29;20095;-80
2022/04/25 12:41:30;;;;;;;16.45;14.75;;;17.20;99.90;;;;;;4893240;29;20047;-80
2022/04/25 12:43:59;;;;;;;15.38;12.80;;;17.70;99.90;;;;;;4907410;28;20078;-79
2022/04/25 12:46:43;;;;;;;16.80;13.63;;;17.90;99.90;;;;;;4891681;28;20036;-79
2022/04/25 12:49:13;;;;;;;15.13;13.32;;;18.20;99.90;;;;;;4924038;28;20535;-80
2022/04/25 12:51:45;;;;;;;17.10;13.80;;;18.50;99.90;;;;;;4892616;29;20043;-79
2022/04/25 12:54:26;;;;;;;16.27;13.40;;;18.80;99.90;;;;;;4904242;29;20095;-79
2022/04/25 12:56:55;;;;;;;15.98;12.05;;;19.00;99.90;;;;;;4911324;28;20036;-79
2022/04/25 12:59:28;;;;;;;13.55;12.15;;;19.20;99.90;;;;;;4888643;29;20036;-79
2022/04/25 13:02:09;;;;;;;12.70;10.35;;;19.40;99.90;;;;;;4877296;28;20039;-79
2022/04/25 13:04:52;;;;;;;12.45;9.80;;;19.70;99.90;;;;;;4893405;28;20168;-80
2022/04/25 13:07:22;;;;;;;13.23;9.98;;;19.80;99.90;;;;;;4869713;29;20051;-79
2022/04/25 13:09:48;;;;;;;10.43;9.10;;;19.90;99.90;;;;;;4900440;28;20029;-79
2022/04/25 13:12:17;;;;;;;11.07;8.93;;;20.00;99.90;;;;;;4905880;28;20043;-79
2022/04/25 13:14:43;;;;;;;12.60;9.70;;;20.20;99.90;;;;;;4892553;28;20066;-79
2022/04/25 13:17:08;;;;;;;10.38;8.45;;;20.40;99.90;;;;;;4900784;29;20045;-79
2022/04/25 13:19:34;;;;;;;9.50;8.45;;;20.50;99.90;;;;;;4919417;28;20036;-79
2022/04/25 13:22:00;;;;;;;9.60;8.45;;;20.70;99.90;;;;;;4921347;28;20040;-79
2022/04/25 13:24:26;;;;;;;9.05;8.07;;;20.90;99.90;;;;;;4906566;28;20044;-79